Time;durP1;ratioP1;P1;durP2;ratioP2;P2;SDS_P1;SDS_P2;PMS_P1;PMS_P2;Temp;Humidity;BMP_temperature;BMP_pressure;BME280_temperature;BME280_humidity;BME280_pressure;Samples;Min_cycle;Max_cycle;Signal;HPM_P1;HPM_P2
2022/03/10 00:00:56;;;;;;;22.85;14.40;;;3.40;99.90;;;;;;5092384;28;20062;-82
2022/03/10 00:03:22;;;;;;;21.55;14.43;;;2.00;99.90;;;;;;5076020;28;20680;-82
2022/03/10 00:05:48;;;;;;;23.50;14.20;;;2.30;99.90;;;;;;5075373;28;20475;-82
2022/03/10 00:08:13;;;;;;;23.65;14.43;;;1.90;99.90;;;;;;5092783;28;20047;-82
2022/03/10 00:10:39;;;;;;;25.02;14.73;;;2.30;99.90;;;;;;5092929;28;20039;-82
2022/03/10 00:13:05;;;;;;;23.30;14.50;;;1.90;99.90;;;;;;5075692;28;20502;-82
2022/03/10 00:15:30;;;;;;;21.15;13.82;;;1.90;99.90;;;;;;5093065;28;20039;-81
2022/03/10 00:17:56;;;;;;;23.73;13.77;;;3.20;99.90;;;;;;5058629;28;20047;-81
2022/03/10 00:20:22;;;;;;;22.75;13.43;;;2.60;99.90;;;;;;5075953;28;20039;-81
2022/03/10 00:22:49;;;;;;;21.58;13.30;;;1.90;99.90;;;;;;5075703;28;20048;-81
2022/03/10 00:25:15;;;;;;;22.10;13.75;;;2.30;99.90;;;;;;5076024;28;20075;-81
2022/03/10 00:27:41;;;;;;;19.77;13.63;;;1.90;99.90;;;;;;5112644;28;20047;-81
2022/03/10 00:30:07;;;;;;;18.75;12.80;;;1.80;99.90;;;;;;5096282;28;20049;-82
2022/03/10 00:32:40;;;;;;;18.98;13.43;;;1.80;99.90;;;;;;5079753;28;20051;-82
2022/03/10 00:35:06;;;;;;;24.63;14.05;;;3.10;99.90;;;;;;5080176;28;20245;-82
2022/03/10 00:37:31;;;;;;;21.00;14.23;;;1.80;99.90;;;;;;5079351;28;20075;-82
2022/03/10 00:39:57;;;;;;;21.60;14.18;;;2.50;99.90;;;;;;5078687;28;20079;-82
2022/03/10 00:42:23;;;;;;;21.08;14.30;;;1.70;99.90;;;;;;5096634;28;20052;-82
2022/03/10 00:44:48;;;;;;;20.92;14.68;;;2.00;99.90;;;;;;5096134;28;20052;-82
2022/03/10 00:47:15;;;;;;;20.52;13.55;;;1.70;99.90;;;;;;5095793;28;20055;-82
2022/03/10 00:49:40;;;;;;;23.63;14.43;;;1.70;99.90;;;;;;5096782;28;20055;-82
2022/03/10 00:52:06;;;;;;;21.08;13.90;;;2.30;99.90;;;;;;5112704;28;20051;-82
2022/03/10 00:54:32;;;;;;;21.20;13.88;;;1.60;99.90;;;;;;5096304;28;20055;-82
2022/03/10 00:56:57;;;;;;;21.13;14.45;;;2.60;99.90;;;;;;5112350;28;20146;-82
2022/03/10 00:59:23;;;;;;;21.88;14.60;;;1.70;99.90;;;;;;5095514;28;20159;-82
2022/03/10 01:01:49;;;;;;;24.17;14.50;;;3.00;99.90;;;;;;5079443;28;20409;-82
2022/03/10 01:04:14;;;;;;;22.33;14.73;;;1.50;99.90;;;;;;5112352;28;20100;-82
2022/03/10 01:06:40;;;;;;;23.30;14.30;;;1.50;99.90;;;;;;5095687;28;20399;-82
2022/03/10 01:09:06;;;;;;;22.90;15.18;;;1.50;99.90;;;;;;5078694;28;20059;-83
2022/03/10 01:11:33;;;;;;;21.73;14.25;;;2.30;99.90;;;;;;5112931;28;20048;-82
2022/03/10 01:13:58;;;;;;;21.63;14.73;;;1.90;99.90;;;;;;5095780;28;20052;-82
2022/03/10 01:16:24;;;;;;;23.30;15.27;;;1.40;99.90;;;;;;5095860;28;20047;-82
2022/03/10 01:18:50;;;;;;;22.75;15.20;;;1.30;99.90;;;;;;5095592;28;20094;-82
2022/03/10 01:21:16;;;;;;;22.38;15.57;;;1.30;99.90;;;;;;5112146;28;20517;-82
2022/03/10 01:23:42;;;;;;;22.08;16.63;;;2.10;99.90;;;;;;5079325;28;20119;-81
2022/03/10 01:26:07;;;;;;;21.88;15.40;;;1.80;99.90;;;;;;5097407;28;20130;-82
2022/03/10 01:28:33;;;;;;;24.23;16.17;;;1.10;99.90;;;;;;5095486;28;20071;-82
2022/03/10 01:30:59;;;;;;;23.20;15.25;;;1.10;99.90;;;;;;5111763;28;20043;-82
2022/03/10 01:33:24;;;;;;;25.80;16.25;;;0.90;99.90;;;;;;5112313;28;20051;-82
2022/03/10 01:35:50;;;;;;;23.13;14.77;;;0.90;99.90;;;;;;5112167;28;20047;-82
2022/03/10 01:38:15;;;;;;;24.63;15.80;;;0.90;99.90;;;;;;5093932;28;20055;-82
2022/03/10 01:40:44;;;;;;;23.70;15.43;;;0.90;99.90;;;;;;5112238;28;20055;-82
2022/03/10 01:43:09;;;;;;;25.38;16.08;;;0.90;99.90;;;;;;5111760;28;20094;-82
2022/03/10 01:45:35;;;;;;;23.67;15.32;;;1.50;99.90;;;;;;5095215;28;20087;-82
2022/03/10 01:48:01;;;;;;;23.88;14.70;;;0.90;99.90;;;;;;5111642;28;20055;-82
2022/03/10 01:50:27;;;;;;;25.00;14.50;;;1.30;99.90;;;;;;5111944;28;20141;-82
2022/03/10 01:52:53;;;;;;;24.85;14.75;;;0.90;99.90;;;;;;5094687;28;20044;-81
2022/03/10 01:55:18;;;;;;;21.77;16.10;;;2.00;99.90;;;;;;5060846;28;20040;-82
2022/03/10 01:57:44;;;;;;;23.77;16.13;;;0.90;99.90;;;;;;5077659;28;20548;-82
2022/03/10 02:00:10;;;;;;;27.98;16.75;;;1.00;99.90;;;;;;5077333;28;20502;-82
2022/03/10 02:02:36;;;;;;;23.88;15.02;;;0.90;99.90;;;;;;5094749;28;20134;-82
2022/03/10 02:05:01;;;;;;;25.27;15.85;;;0.90;99.90;;;;;;5094202;28;20117;-82
2022/03/10 02:10:17;;;;;;;25.48;17.30;;;2.20;99.90;;;;;;5096652;28;20076;-82
2022/03/10 02:12:46;;;;;;;25.13;16.60;;;2.40;99.90;;;;;;5112703;28;20048;-82
2022/03/10 02:17:57;;;;;;;26.60;16.50;;;2.40;99.90;;;;;;5096609;28;20597;-82
2022/03/10 02:20:23;;;;;;;23.48;16.13;;;1.50;99.90;;;;;;5111992;28;20118;-82
2022/03/10 02:22:49;;;;;;;24.80;15.23;;;1.50;99.90;;;;;;5111371;28;20512;-82
2022/03/10 02:25:15;;;;;;;25.00;15.10;;;1.50;99.90;;;;;;5110817;28;20134;-82
2022/03/10 02:27:41;;;;;;;25.20;15.35;;;1.90;99.90;;;;;;5060697;28;20458;-82
2022/03/10 02:30:07;;;;;;;21.77;15.15;;;1.40;99.90;;;;;;5093460;28;20112;-82
2022/03/10 02:32:33;;;;;;;22.65;15.52;;;1.40;99.90;;;;;;5094388;28;20122;-82
2022/03/10 02:34:59;;;;;;;22.70;15.07;;;2.40;99.90;;;;;;5077452;28;20070;-82
2022/03/10 02:37:24;;;;;;;25.13;15.90;;;1.30;99.90;;;;;;5093710;28;20100;-82
2022/03/10 02:39:50;;;;;;;26.75;15.90;;;2.30;99.90;;;;;;5093968;28;20072;-82
2022/03/10 02:42:16;;;;;;;23.52;15.38;;;1.90;99.90;;;;;;5092895;28;20094;-82
2022/03/10 02:44:42;;;;;;;24.58;16.25;;;1.10;99.90;;;;;;5077219;28;20059;-82
2022/03/10 02:47:08;;;;;;;26.63;16.80;;;1.10;99.90;;;;;;5110129;28;20051;-82
2022/03/10 02:49:34;;;;;;;26.17;16.52;;;1.20;99.90;;;;;;5093233;28;20047;-82
2022/03/10 02:52:02;;;;;;;23.67;15.95;;;1.30;99.90;;;;;;5111823;27;20093;-82
2022/03/10 02:54:27;;;;;;;25.83;15.00;;;1.40;99.90;;;;;;5093553;28;20125;-82
2022/03/10 02:56:53;;;;;;;25.42;15.10;;;1.30;99.90;;;;;;5077149;28;20483;-82
2022/03/10 02:59:19;;;;;;;22.60;15.77;;;1.30;99.90;;;;;;5109865;28;20051;-82
2022/03/10 03:01:44;;;;;;;23.27;15.20;;;1.40;99.90;;;;;;5093869;28;20387;-82
2022/03/10 03:04:10;;;;;;;23.88;15.25;;;1.30;99.90;;;;;;5110815;28;20542;-82
2022/03/10 03:06:35;;;;;;;22.27;14.75;;;1.40;99.90;;;;;;5114852;28;20452;-80
2022/03/10 03:09:01;;;;;;;24.27;14.75;;;1.70;99.90;;;;;;5121577;28;20048;-82
2022/03/10 03:11:27;;;;;;;22.45;14.65;;;1.50;99.90;;;;;;5076641;28;20091;-82
2022/03/10 03:13:52;;;;;;;23.60;15.23;;;1.50;99.90;;;;;;5095488;28;20047;-81
2022/03/10 03:16:18;;;;;;;21.70;15.05;;;1.60;99.90;;;;;;5112756;28;20051;-82
2022/03/10 03:18:44;;;;;;;22.60;15.00;;;1.60;99.90;;;;;;5094176;28;20552;-81
2022/03/10 03:21:09;;;;;;;22.95;15.18;;;2.90;99.90;;;;;;5112149;28;20047;-81
2022/03/10 03:23:35;;;;;;;24.63;15.13;;;2.00;99.90;;;;;;5093175;28;20094;-82
2022/03/10 03:26:01;;;;;;;23.88;15.48;;;2.30;99.90;;;;;;5093592;28;20071;-82
2022/03/10 03:28:26;;;;;;;24.80;14.73;;;1.40;99.90;;;;;;5110043;28;20055;-82
2022/03/10 03:30:52;;;;;;;23.15;14.98;;;1.50;99.90;;;;;;5093606;28;20058;-82
2022/03/10 03:33:18;;;;;;;21.70;14.30;;;1.70;99.90;;;;;;5093027;28;20376;-82
2022/03/10 03:35:44;;;;;;;20.13;13.85;;;2.60;99.90;;;;;;5110190;28;20528;-82
2022/03/10 03:38:11;;;;;;;20.05;13.27;;;1.80;99.90;;;;;;5076408;28;20497;-82
2022/03/10 03:40:37;;;;;;;21.75;14.60;;;2.80;99.90;;;;;;5093497;28;20047;-82
2022/03/10 03:43:02;;;;;;;18.50;13.13;;;3.30;99.90;;;;;;5093446;28;20047;-82
2022/03/10 03:45:28;;;;;;;21.45;14.05;;;2.80;99.90;;;;;;5109759;28;20051;-82
2022/03/10 03:47:54;;;;;;;21.90;13.05;;;2.10;99.90;;;;;;5110748;28;20052;-82
2022/03/10 03:50:20;;;;;;;20.50;14.10;;;2.10;99.90;;;;;;5092896;28;20047;-82
2022/03/10 03:52:46;;;;;;;19.90;13.63;;;2.10;99.90;;;;;;5093386;28;20499;-83
2022/03/10 03:55:12;;;;;;;18.77;13.48;;;2.00;99.90;;;;;;5059949;28;20544;-82
2022/03/10 03:57:38;;;;;;;19.98;14.02;;;2.10;99.90;;;;;;5092600;28;20135;-82
2022/03/10 04:00:05;;;;;;;22.65;13.20;;;2.20;99.90;;;;;;5093791;28;20059;-82
2022/03/10 04:02:31;;;;;;;19.52;12.95;;;2.10;99.90;;;;;;5099709;28;20437;-82
2022/03/10 04:04:56;;;;;;;24.45;14.32;;;2.20;99.90;;;;;;5082777;28;20085;-82
2022/03/10 04:07:22;;;;;;;20.63;13.18;;;3.60;99.90;;;;;;5116161;28;20047;-82
2022/03/10 04:09:48;;;;;;;20.08;13.60;;;2.40;99.90;;;;;;5099485;28;20105;-83
2022/03/10 04:12:14;;;;;;;20.25;14.45;;;2.70;99.90;;;;;;5099765;28;20086;-82
2022/03/10 04:14:40;;;;;;;19.15;13.65;;;3.00;99.90;;;;;;5099109;28;20082;-82
2022/03/10 04:17:06;;;;;;;20.33;12.80;;;2.40;99.90;;;;;;5099977;28;20056;-82
2022/03/10 04:19:31;;;;;;;22.42;13.00;;;3.20;99.90;;;;;;5098782;28;20079;-82
2022/03/10 04:21:57;;;;;;;22.38;13.48;;;3.00;99.90;;;;;;5118088;28;20047;-82
2022/03/10 04:24:23;;;;;;;22.77;14.55;;;2.60;99.90;;;;;;5082670;28;20471;-83
2022/03/10 04:26:48;;;;;;;19.05;13.38;;;2.30;99.90;;;;;;5100075;28;20086;-81
2022/03/10 04:29:14;;;;;;;23.20;15.18;;;3.30;99.90;;;;;;5082867;28;20479;-81
2022/03/10 04:31:41;;;;;;;19.83;13.20;;;2.00;99.90;;;;;;5116194;28;20187;-81
2022/03/10 04:34:06;;;;;;;22.75;14.55;;;2.20;99.90;;;;;;5117180;28;20126;-81
2022/03/10 04:36:32;;;;;;;20.98;14.43;;;2.00;99.90;;;;;;5117709;28;20138;-82
2022/03/10 04:38:58;;;;;;;20.23;13.60;;;2.00;99.90;;;;;;5099625;28;20508;-82
2022/03/10 04:41:23;;;;;;;22.45;14.02;;;2.10;99.90;;;;;;5116637;28;20047;-81
2022/03/10 04:43:49;;;;;;;21.52;14.25;;;1.80;99.90;;;;;;5100325;28;20046;-82
2022/03/10 04:46:15;;;;;;;25.60;14.60;;;1.80;99.90;;;;;;5117690;28;20056;-81
2022/03/10 04:48:40;;;;;;;20.33;13.70;;;1.70;99.90;;;;;;5117291;28;20134;-82
2022/03/10 04:51:06;;;;;;;26.05;14.45;;;1.70;99.90;;;;;;5101046;28;20059;-82
2022/03/10 04:53:32;;;;;;;20.92;14.30;;;1.60;99.90;;;;;;5101108;28;20048;-82
2022/03/10 04:55:57;;;;;;;23.98;13.50;;;1.60;99.90;;;;;;5102794;28;20051;-82
2022/03/10 04:58:23;;;;;;;18.88;13.65;;;1.60;99.90;;;;;;5124101;28;20051;-82
2022/03/10 05:00:49;;;;;;;20.35;15.00;;;2.20;99.90;;;;;;5124021;28;20084;-81
2022/03/10 05:03:15;;;;;;;20.63;14.32;;;1.70;99.90;;;;;;5123580;28;20055;-82
2022/03/10 05:05:40;;;;;;;19.63;14.60;;;1.30;99.90;;;;;;5122054;28;20097;-82
2022/03/10 05:08:06;;;;;;;19.42;14.18;;;1.20;99.90;;;;;;5120512;28;20039;-82
2022/03/10 05:10:32;;;;;;;23.10;13.75;;;1.00;99.90;;;;;;5119987;28;20048;-82
2022/03/10 05:13:00;;;;;;;22.80;13.32;;;1.80;99.90;;;;;;5115883;28;20052;-82
2022/03/10 05:15:26;;;;;;;18.80;13.15;;;0.90;99.90;;;;;;5082107;28;20067;-82
2022/03/10 05:17:52;;;;;;;21.55;14.73;;;0.90;99.90;;;;;;5097262;28;20052;-82
2022/03/10 05:20:18;;;;;;;21.52;14.27;;;0.80;99.90;;;;;;5080265;28;20243;-82
2022/03/10 05:22:47;;;;;;;19.23;14.18;;;2.00;99.90;;;;;;5096683;28;20047;-82
2022/03/10 05:25:14;;;;;;;18.70;13.27;;;0.70;99.90;;;;;;5114099;28;20048;-82
2022/03/10 05:27:40;;;;;;;22.70;13.63;;;1.40;99.90;;;;;;5099839;28;20109;-82
2022/03/10 05:30:06;;;;;;;21.73;14.48;;;1.50;99.90;;;;;;5119376;28;20059;-82
2022/03/10 05:32:32;;;;;;;23.33;13.98;;;0.70;99.90;;;;;;5101334;28;20086;-82
2022/03/10 05:35:00;;;;;;;22.92;14.88;;;1.60;99.90;;;;;;5083916;28;20051;-82
2022/03/10 05:37:25;;;;;;;20.02;14.07;;;0.50;99.90;;;;;;5117620;28;20070;-82
2022/03/10 05:39:51;;;;;;;24.23;15.10;;;0.50;99.90;;;;;;5114618;28;20047;-82
2022/03/10 05:42:17;;;;;;;23.10;14.23;;;0.40;99.90;;;;;;5114690;28;20055;-81
2022/03/10 05:44:42;;;;;;;21.63;14.35;;;0.40;99.90;;;;;;5095277;28;20087;-80
2022/03/10 05:47:09;;;;;;;23.02;14.23;;;0.90;99.90;;;;;;5095230;28;20051;-81
2022/03/10 05:49:36;;;;;;;21.30;14.60;;;0.40;99.90;;;;;;5111071;28;20047;-79
2022/03/10 05:52:02;;;;;;;29.80;15.32;;;0.40;99.90;;;;;;5113101;28;20044;-80
2022/03/10 05:54:27;;;;;;;23.60;14.80;;;0.50;99.90;;;;;;5077650;28;20059;-80
2022/03/10 05:56:53;;;;;;;21.23;14.57;;;0.50;99.90;;;;;;5111465;28;20043;-80
2022/03/10 05:59:19;;;;;;;23.98;13.85;;;1.20;99.90;;;;;;5094147;28;20101;-81
2022/03/10 06:01:46;;;;;;;20.80;13.15;;;1.80;99.90;;;;;;5116066;27;20130;-80
2022/03/10 06:04:11;;;;;;;25.50;14.70;;;0.60;99.90;;;;;;5114993;27;20046;-80
2022/03/10 06:06:37;;;;;;;21.02;14.05;;;2.10;99.90;;;;;;5130997;27;20051;-81
2022/03/10 06:09:03;;;;;;;20.30;13.57;;;0.70;99.90;;;;;;5115032;27;20044;-81
2022/03/10 06:11:29;;;;;;;20.48;13.80;;;0.70;99.90;;;;;;5133084;27;20058;-81
2022/03/10 06:13:55;;;;;;;22.95;14.18;;;0.80;99.90;;;;;;5131753;27;20087;-81
2022/03/10 06:16:21;;;;;;;22.77;14.82;;;0.90;99.90;;;;;;5131777;27;20127;-81
2022/03/10 06:18:47;;;;;;;19.08;13.82;;;0.90;99.90;;;;;;5114112;27;20051;-80
2022/03/10 06:21:12;;;;;;;21.58;13.95;;;1.10;99.90;;;;;;5131650;27;20047;-81
2022/03/10 06:23:38;;;;;;;19.92;14.15;;;1.10;99.90;;;;;;5112776;28;20050;-81
2022/03/10 06:26:04;;;;;;;21.67;13.55;;;1.20;99.90;;;;;;5131520;27;20046;-81
2022/03/10 06:28:30;;;;;;;19.52;13.63;;;1.90;99.90;;;;;;5114418;27;20096;-81
2022/03/10 06:30:56;;;;;;;25.95;14.50;;;1.50;99.90;;;;;;5131073;27;20302;-81
2022/03/10 06:33:22;;;;;;;22.45;15.00;;;1.90;99.90;;;;;;5114803;27;20043;-81
2022/03/10 06:35:48;;;;;;;26.05;14.25;;;1.80;99.90;;;;;;5113815;27;20478;-81
2022/03/10 06:38:13;;;;;;;22.73;14.55;;;1.70;99.90;;;;;;5097165;27;20476;-81
2022/03/10 06:40:39;;;;;;;24.10;14.75;;;1.90;99.90;;;;;;5130685;27;20103;-81
2022/03/10 06:43:05;;;;;;;21.38;13.57;;;2.00;99.90;;;;;;5114497;27;20065;-81
2022/03/10 06:45:31;;;;;;;22.65;14.00;;;2.10;99.90;;;;;;5131419;27;20447;-81
2022/03/10 06:47:58;;;;;;;19.33;13.98;;;2.30;99.90;;;;;;5113539;27;20066;-81
2022/03/10 06:50:24;;;;;;;19.67;13.07;;;2.60;99.90;;;;;;5131350;27;20078;-81
2022/03/10 06:52:51;;;;;;;22.08;13.93;;;2.60;99.90;;;;;;5096016;27;20486;-81
2022/03/10 06:55:19;;;;;;;21.02;13.70;;;2.80;99.90;;;;;;5114006;27;20051;-82
2022/03/10 06:57:44;;;;;;;18.15;13.25;;;3.30;99.90;;;;;;5113801;27;20122;-82
2022/03/10 07:00:12;;;;;;;20.20;13.75;;;4.10;99.90;;;;;;5131843;27;20158;-81
2022/03/10 07:02:37;;;;;;;19.35;13.00;;;4.70;99.90;;;;;;5114038;27;20090;-81
2022/03/10 07:05:03;;;;;;;19.48;13.98;;;5.30;99.90;;;;;;5130445;27;20082;-81
2022/03/10 07:07:29;;;;;;;22.77;13.10;;;5.80;99.90;;;;;;5097352;27;20091;-81
2022/03/10 07:09:55;;;;;;;19.90;13.23;;;6.00;99.90;;;;;;5131424;27;20508;-81
2022/03/10 07:12:20;;;;;;;20.52;13.55;;;6.00;99.90;;;;;;5113835;27;20137;-81
2022/03/10 07:14:46;;;;;;;20.98;14.18;;;6.20;99.90;;;;;;5129617;27;20211;-81
2022/03/10 07:17:12;;;;;;;18.30;13.02;;;6.20;99.90;;;;;;5130932;27;20085;-81
2022/03/10 07:19:37;;;;;;;18.73;13.05;;;6.40;99.90;;;;;;5130610;27;20042;-82
2022/03/10 07:22:03;;;;;;;21.08;13.52;;;6.40;99.90;;;;;;5095933;27;20498;-80
2022/03/10 07:24:30;;;;;;;20.60;13.63;;;6.50;99.90;;;;;;5113516;27;20055;-80
2022/03/10 07:26:56;;;;;;;18.95;14.13;;;6.80;99.90;;;;;;5113226;27;20537;-80
2022/03/10 07:29:22;;;;;;;19.63;14.60;;;7.30;99.90;;;;;;5130378;27;20047;-82
2022/03/10 07:31:47;;;;;;;18.75;13.48;;;7.60;99.90;;;;;;5095796;27;20126;-81
2022/03/10 07:34:13;;;;;;;19.35;14.38;;;7.80;99.90;;;;;;5130779;27;20489;-80
2022/03/10 07:36:40;;;;;;;18.50;13.23;;;7.90;99.90;;;;;;5130948;27;20166;-81
2022/03/10 07:39:06;;;;;;;20.30;13.88;;;8.20;99.90;;;;;;5131032;27;20058;-81
2022/03/10 07:41:32;;;;;;;21.10;14.07;;;8.40;99.90;;;;;;5096207;27;20047;-81
2022/03/10 07:43:57;;;;;;;22.38;14.38;;;8.50;99.50;;;;;;5112943;27;20135;-81
2022/03/10 07:46:23;;;;;;;22.35;13.80;;;8.70;99.10;;;;;;5131272;27;20122;-81
2022/03/10 07:48:50;;;;;;;23.40;13.88;;;9.00;99.30;;;;;;5131029;27;20038;-81
2022/03/10 07:51:19;;;;;;;18.00;14.00;;;9.00;98.30;;;;;;5096764;28;20143;-80
2022/03/10 07:53:45;;;;;;;18.13;13.85;;;9.00;98.90;;;;;;5130508;27;20490;-81
2022/03/10 07:56:11;;;;;;;20.23;14.50;;;9.30;98.60;;;;;;5089086;27;20054;-81
2022/03/10 07:58:37;;;;;;;18.27;13.65;;;9.70;97.50;;;;;;5112892;28;20058;-81
2022/03/10 08:01:02;;;;;;;19.48;14.57;;;9.90;97.10;;;;;;5091986;28;20052;-81
2022/03/10 08:03:28;;;;;;;16.83;13.93;;;9.90;97.00;;;;;;5109800;28;20079;-81
2022/03/10 08:05:54;;;;;;;20.00;14.55;;;10.10;94.90;;;;;;5110145;28;20141;-81
2022/03/10 08:08:20;;;;;;;17.23;13.90;;;10.40;95.90;;;;;;5109776;28;20051;-81
2022/03/10 08:10:45;;;;;;;24.08;15.90;;;10.40;95.60;;;;;;5076130;28;20069;-81
2022/03/10 08:13:11;;;;;;;22.48;16.70;;;10.60;94.70;;;;;;5108494;28;20048;-81
2022/03/10 08:15:37;;;;;;;16.65;13.55;;;11.10;93.50;;;;;;5109705;28;20054;-81
2022/03/10 08:18:03;;;;;;;20.25;14.20;;;10.90;94.40;;;;;;5075033;28;20059;-81
2022/03/10 08:20:29;;;;;;;17.02;12.88;;;10.90;93.20;;;;;;5092871;28;20467;-81
2022/03/10 08:22:55;;;;;;;18.15;14.02;;;11.20;93.70;;;;;;5108994;28;20083;-81
2022/03/10 08:25:21;;;;;;;20.27;13.98;;;11.10;92.80;;;;;;5092702;28;20098;-81
2022/03/10 08:27:49;;;;;;;15.25;13.30;;;12.00;90.40;;;;;;5092506;28;20094;-81
2022/03/10 08:30:15;;;;;;;17.95;13.95;;;11.80;89.50;;;;;;5092103;28;20078;-81
2022/03/10 08:32:43;;;;;;;17.58;13.48;;;11.50;90.90;;;;;;5109649;28;20115;-81
2022/03/10 08:35:09;;;;;;;18.17;14.23;;;11.60;90.80;;;;;;5092109;28;20083;-80
2022/03/10 08:37:35;;;;;;;17.48;13.50;;;11.10;90.80;;;;;;5092404;28;20086;-81
2022/03/10 08:40:00;;;;;;;16.77;13.77;;;11.50;90.60;;;;;;5108550;28;20040;-81
2022/03/10 08:42:26;;;;;;;16.52;13.90;;;12.00;90.70;;;;;;5110770;28;20547;-79
2022/03/10 08:44:52;;;;;;;21.30;13.88;;;12.10;90.80;;;;;;5109392;28;20170;-81
2022/03/10 08:47:17;;;;;;;16.90;13.55;;;11.60;90.30;;;;;;5109769;28;20062;-81
2022/03/10 08:49:43;;;;;;;17.98;13.82;;;12.30;89.20;;;;;;5113092;28;20557;-81
2022/03/10 08:52:09;;;;;;;18.40;13.77;;;12.10;90.00;;;;;;5110819;27;20058;-81
2022/03/10 08:54:34;;;;;;;16.85;13.73;;;12.10;90.10;;;;;;5096792;27;20036;-80
2022/03/10 08:57:00;;;;;;;16.08;13.40;;;12.30;90.30;;;;;;5115158;27;20092;-81
2022/03/10 08:59:26;;;;;;;16.35;13.65;;;11.90;90.30;;;;;;5112115;27;20047;-80
2022/03/10 09:01:51;;;;;;;18.08;13.93;;;12.30;90.80;;;;;;5132592;27;20445;-81
2022/03/10 09:04:17;;;;;;;18.67;14.13;;;12.30;90.90;;;;;;5126307;27;20177;-80
2022/03/10 09:06:43;;;;;;;17.40;13.93;;;12.50;89.50;;;;;;5132493;27;20035;-80
2022/03/10 09:09:08;;;;;;;18.15;14.27;;;12.90;90.10;;;;;;5130952;27;20553;-81
2022/03/10 09:11:34;;;;;;;18.75;13.85;;;12.90;90.70;;;;;;5132223;27;20051;-80
2022/03/10 09:14:00;;;;;;;18.55;14.00;;;13.10;90.10;;;;;;5114582;27;20035;-81
2022/03/10 09:16:26;;;;;;;16.92;12.85;;;13.40;87.90;;;;;;5133647;27;20039;-80
2022/03/10 09:18:51;;;;;;;17.45;13.55;;;13.30;88.60;;;;;;5132121;27;20046;-81
2022/03/10 09:21:17;;;;;;;18.38;14.35;;;13.40;88.70;;;;;;5112101;28;20100;-81
2022/03/10 09:23:43;;;;;;;18.88;14.20;;;13.40;87.30;;;;;;5095684;28;20048;-81
2022/03/10 09:26:09;;;;;;;19.45;14.65;;;13.30;86.70;;;;;;5111687;28;20176;-81
2022/03/10 09:28:35;;;;;;;17.05;14.07;;;13.40;87.40;;;;;;5095189;28;20094;-81
2022/03/10 09:31:01;;;;;;;16.73;13.40;;;13.50;88.10;;;;;;5087169;27;20078;-81
2022/03/10 09:33:26;;;;;;;16.77;13.63;;;13.90;88.50;;;;;;5096047;27;20146;-81
2022/03/10 09:35:52;;;;;;;17.60;13.57;;;13.80;86.00;;;;;;5131910;27;20095;-81
2022/03/10 09:38:18;;;;;;;16.83;13.00;;;13.90;85.80;;;;;;5112479;27;20047;-81
2022/03/10 09:40:46;;;;;;;16.38;14.10;;;13.60;84.50;;;;;;5126648;27;20122;-81
2022/03/10 09:43:11;;;;;;;17.17;13.88;;;13.90;86.60;;;;;;5127136;27;20050;-81
2022/03/10 09:45:37;;;;;;;15.60;13.60;;;13.80;86.10;;;;;;5116490;27;20351;-80
2022/03/10 09:48:04;;;;;;;17.40;13.05;;;14.10;83.90;;;;;;5097182;27;20048;-81
2022/03/10 09:50:29;;;;;;;15.27;12.48;;;13.60;84.00;;;;;;5113081;27;20127;-81
2022/03/10 09:52:55;;;;;;;17.55;13.85;;;14.00;83.50;;;;;;5113833;27;20814;-80
2022/03/10 09:55:20;;;;;;;16.58;13.02;;;13.80;85.20;;;;;;5129542;27;20051;-82
2022/03/10 09:57:47;;;;;;;17.98;13.82;;;13.40;85.60;;;;;;5130573;27;20755;-81
2022/03/10 10:00:16;;;;;;;17.35;13.13;;;13.30;84.50;;;;;;5112180;27;20534;-81
2022/03/10 10:02:42;;;;;;;21.05;14.25;;;13.00;87.00;;;;;;5131764;27;20134;-81
2022/03/10 10:05:28;;;;;;;16.70;13.25;;;12.80;88.60;;;;;;5113553;27;20093;-80
2022/03/10 10:08:08;;;;;;;16.48;13.27;;;12.60;87.60;;;;;;5128396;27;20555;-81
2022/03/10 10:10:35;;;;;;;16.67;13.60;;;12.80;90.00;;;;;;5110174;27;20502;-80
2022/03/10 10:13:05;;;;;;;16.30;13.27;;;13.30;85.90;;;;;;5112119;27;20046;-80
2022/03/10 10:15:39;;;;;;;17.73;12.80;;;13.70;86.70;;;;;;5111165;27;20104;-80
2022/03/10 10:18:05;;;;;;;15.32;12.57;;;14.20;86.90;;;;;;5076564;27;20085;-79
2022/03/10 10:20:48;;;;;;;17.13;13.40;;;14.20;84.60;;;;;;5093341;27;20408;-80
2022/03/10 10:23:18;;;;;;;16.05;13.05;;;14.00;83.10;;;;;;5095517;27;20100;-80
2022/03/10 10:25:51;;;;;;;18.48;13.38;;;14.20;85.10;;;;;;5126189;27;20561;-79
2022/03/10 10:28:27;;;;;;;20.23;14.02;;;14.20;84.30;;;;;;5094690;27;20696;-80
2022/03/10 10:30:54;;;;;;;16.95;13.18;;;14.20;83.30;;;;;;5123240;27;20062;-80
2022/03/10 10:33:19;;;;;;;17.63;13.63;;;14.20;82.20;;;;;;5111589;27;20403;-80
2022/03/10 10:35:45;;;;;;;19.52;14.07;;;13.90;83.80;;;;;;5110860;27;20122;-80
2022/03/10 10:38:12;;;;;;;17.02;13.18;;;13.70;86.50;;;;;;5110113;27;20043;-80
2022/03/10 10:40:38;;;;;;;18.55;13.55;;;13.50;87.10;;;;;;5113809;27;20088;-80
2022/03/10 10:43:04;;;;;;;17.73;13.63;;;13.40;88.10;;;;;;5115132;27;20071;-79
2022/03/10 10:45:35;;;;;;;18.80;12.90;;;13.50;88.80;;;;;;5095153;27;20290;-80
2022/03/10 10:48:02;;;;;;;16.92;12.75;;;13.70;89.40;;;;;;5124153;27;20047;-80
2022/03/10 10:50:29;;;;;;;16.25;13.30;;;13.70;84.20;;;;;;5113015;27;20047;-81
2022/03/10 10:52:55;;;;;;;16.70;13.30;;;13.70;85.40;;;;;;5134576;27;20182;-82
2022/03/10 10:55:21;;;;;;;18.98;13.00;;;14.00;82.60;;;;;;5132315;27;20069;-82
2022/03/10 10:57:47;;;;;;;19.95;12.57;;;13.80;84.20;;;;;;5096689;27;20050;-83
2022/03/10 11:00:13;;;;;;;17.55;13.65;;;13.70;84.70;;;;;;5079426;27;20062;-82
2022/03/10 11:02:43;;;;;;;17.65;12.88;;;13.60;84.50;;;;;;5096379;27;20118;-80
2022/03/10 11:05:11;;;;;;;17.73;12.95;;;13.50;84.10;;;;;;5124831;27;20050;-80
2022/03/10 11:07:39;;;;;;;16.38;13.30;;;13.30;86.50;;;;;;5113437;27;20054;-80
2022/03/10 11:10:07;;;;;;;17.95;13.38;;;13.50;86.00;;;;;;5124251;27;20051;-80
2022/03/10 11:12:34;;;;;;;18.50;13.45;;;13.50;84.50;;;;;;5112973;27;20043;-80
2022/03/10 11:15:00;;;;;;;22.38;14.13;;;13.30;85.80;;;;;;5113643;27;20511;-80
2022/03/10 11:17:26;;;;;;;18.23;13.98;;;13.10;90.50;;;;;;5106692;27;20058;-80
2022/03/10 11:19:56;;;;;;;18.25;13.75;;;12.90;88.70;;;;;;5101049;28;20427;-80
2022/03/10 11:22:39;;;;;;;19.38;14.50;;;13.10;87.70;;;;;;5109476;28;20379;-80
2022/03/10 11:25:12;;;;;;;17.65;14.30;;;13.20;88.60;;;;;;5094842;28;20043;-80
2022/03/10 11:27:50;;;;;;;18.80;13.45;;;13.00;90.20;;;;;;5093466;28;20043;-80
2022/03/10 11:30:17;;;;;;;18.08;14.27;;;13.10;88.90;;;;;;5109177;28;20047;-80
2022/03/10 11:32:42;;;;;;;19.02;14.20;;;13.10;88.80;;;;;;5076909;28;20052;-80
2022/03/10 11:35:15;;;;;;;18.55;14.15;;;13.10;87.20;;;;;;5092835;28;20130;-80
2022/03/10 11:37:41;;;;;;;18.90;14.75;;;13.20;86.30;;;;;;5076395;28;20047;-80
2022/03/10 11:40:14;;;;;;;18.65;14.15;;;13.30;86.80;;;;;;5110038;28;20096;-80
2022/03/10 11:42:40;;;;;;;17.38;13.68;;;13.20;87.90;;;;;;5128577;27;20039;-82
2022/03/10 11:45:17;;;;;;;20.92;13.90;;;13.30;86.70;;;;;;5113777;28;20268;-81
2022/03/10 11:47:43;;;;;;;21.55;14.55;;;13.40;87.60;;;;;;5095691;28;20043;-81
2022/03/10 11:50:24;;;;;;;18.52;14.57;;;13.40;86.00;;;;;;5111544;27;20054;-81
2022/03/10 11:52:57;;;;;;;18.25;14.35;;;13.50;83.90;;;;;;5124305;27;20043;-81
2022/03/10 11:55:23;;;;;;;22.92;15.38;;;13.60;82.10;;;;;;5113691;28;20043;-81
2022/03/10 11:57:55;;;;;;;23.33;15.07;;;13.60;81.70;;;;;;5125564;27;20070;-81
2022/03/10 12:00:44;;;;;;;22.58;14.90;;;13.70;80.10;;;;;;5108732;28;20063;-81
2022/03/10 12:03:11;;;;;;;21.65;15.07;;;13.70;80.90;;;;;;5101819;28;20130;-80
2022/03/10 12:05:55;;;;;;;19.05;13.93;;;13.70;83.40;;;;;;5092753;28;20092;-80
2022/03/10 12:08:25;;;;;;;20.42;14.55;;;13.80;84.50;;;;;;5108833;28;20572;-80
2022/03/10 12:10:51;;;;;;;20.20;13.98;;;13.70;83.70;;;;;;5109603;28;20094;-80
2022/03/10 12:13:34;;;;;;;20.25;14.45;;;13.90;84.50;;;;;;5122662;28;20411;-80
2022/03/10 12:16:00;;;;;;;21.08;14.07;;;14.10;80.70;;;;;;5109090;28;20547;-80
2022/03/10 12:18:29;;;;;;;20.13;14.43;;;14.30;80.70;;;;;;5120518;28;20039;-80
2022/03/10 12:20:56;;;;;;;20.17;14.48;;;14.30;77.30;;;;;;5096462;27;20086;-80
2022/03/10 12:23:23;;;;;;;19.42;14.20;;;14.40;76.40;;;;;;5100192;27;20043;-80
2022/03/10 12:25:54;;;;;;;19.90;15.13;;;14.40;75.40;;;;;;5117394;27;20389;-80
2022/03/10 12:28:34;;;;;;;20.85;15.35;;;14.30;76.10;;;;;;5100776;27;20484;-80
2022/03/10 12:31:15;;;;;;;20.15;15.05;;;14.40;77.50;;;;;;5134409;27;20039;-80
2022/03/10 12:33:47;;;;;;;26.40;15.27;;;14.60;77.00;;;;;;5134014;27;20097;-80
2022/03/10 12:36:16;;;;;;;22.00;15.02;;;14.60;78.80;;;;;;5117179;27;20378;-80